• Join FlightAware (Why Join?)
  • Login
  • US Flag 
08:53PM EDT


 

Airport Tracker/Info


-or-


 

Live Flight TrackerFlight Track Log ✈ AAL963 ✈ 28-Jun-2013 ✈ KDFW - SBGR / GRU

Flight Track Log - Related Links

Times and Time Zones

All times are in EDT time to prevent confusion due to time zone crossing. See the AAL963 flight status page for this flight to view local times or setup timezone preferences in your user account.

Time Position Orientation Groundspeed Altitude Reporting Facility
EDT Latitude Longitude Course Direction KTS MPH feet Rate Location/Type
09:19PM 32.9690 -97.0210 11° North 220 253 2,500  Level FlightAware
09:19PM 32.9890 -97.0080 29° Northeast 235 270 2,900 1,740 Climbing FlightAware
09:20PM 32.9980 -96.9830 67° East 250 288 3,400 2,100 Climbing FlightAware
09:20PM 33.0060 -96.9460 76° East 251 289 4,500 1,860 Climbing FlightAware
09:21PM 32.9960 -96.8870 101° East 280 322 5,600 1,680 Climbing FlightAware
09:21PM 32.9720 -96.8570 134° Southeast 286 329 6,500 1,920 Climbing FlightAware
09:22PM 32.9350 -96.8430 162° South 297 342 7,400 1,680 Climbing FlightAware
09:22PM 32.9160 -96.8420 177° South 307 353 7,700 1,740 Climbing FlightAware
09:22PM 32.8720 -96.8420 180° South 311 358 8,700 1,800 Climbing FlightAware
09:23PM 32.8140 -96.8410 179° South 323 372 9,800 1,560 Climbing FlightAware
09:24PM 32.7480 -96.8380 178° South 345 397 10,900 1,200 Climbing FlightAware
09:24PM 32.6870 -96.8340 177° South 374 430 11,400 960 Climbing FlightAware
09:25PM 32.6080 -96.8310 178° South 403 464 12,200 1,380 Climbing FlightAware
09:26PM 32.5240 -96.8270 178° South 418 481 13,500 1,800 Climbing FlightAware
09:27PM 32.4440 -96.8230 178° South 426 490 14,800 2,100 Climbing FlightAware
09:27PM 32.3550 -96.8190 178° South 428 493 16,500 1,980 Climbing FlightAware
09:28PM 32.2760 -96.8100 174° South 432 497 17,700 1,800 Climbing FlightAware
09:29PM 32.1823 -96.7774 164° South 438 504 19,200 1,800 Climbing FlightAware ADS-B
09:29PM 32.1229 -96.7542 162° South 442 509 20,100 1,620 Climbing FlightAware ADS-B
09:30PM 32.0628 -96.7310 162° South 449 517 20,900 1,560 Climbing FlightAware ADS-B
09:30PM 31.9907 -96.7036 162° South 456 525 21,900 1,560 Climbing FlightAware ADS-B
09:31PM 31.9280 -96.6797 162° South 459 528 22,700 1,500 Climbing FlightAware ADS-B
09:32PM 31.8603 -96.6540 162° South 464 534 23,500 1,380 Climbing FlightAware ADS-B
09:32PM 31.7956 -96.6273 161° South 468 539 24,200 1,320 Climbing FlightAware ADS-B
09:33PM 31.7331 -96.6013 161° South 472 543 24,900 1,440 Climbing FlightAware ADS-B
09:33PM 31.6699 -96.5753 161° South 474 545 25,700 1,440 Climbing FlightAware ADS-B
09:34PM 31.6042 -96.5486 161° South 476 548 26,400 1,200 Climbing FlightAware ADS-B
09:35PM 31.4726 -96.4960 161° South 483 556 27,600 1,140 Climbing FlightAware ADS-B
09:35PM 31.4050 -96.4712 163° South 487 560 28,200 1,020 Climbing FlightAware ADS-B
09:36PM 31.3396 -96.4471 163° South 490 564 28,700 960 Climbing FlightAware ADS-B
09:37PM 31.2203 -96.4024 162° South 495 570 29,600 840 Climbing FlightAware ADS-B
09:37PM 31.1743 -96.3743 150° Southeast 492 566 29,800 600 Climbing FlightAware ADS-B
09:37PM 31.1448 -96.3450 137° Southeast 489 563 30,000 600 Climbing FlightAware ADS-B
09:37PM 31.1272 -96.3205 130° Southeast 487 560 30,100 780 Climbing FlightAware ADS-B
09:38PM 31.0872 -96.2564 126° Southeast 487 560 30,600 960 Climbing FlightAware ADS-B
09:38PM 31.0464 -96.1896 125° Southeast 489 563 31,100 780 Climbing FlightAware ADS-B
09:41PM 30.8474 -95.8668 126° Southeast 486 559 33,000 480 Climbing FlightAware ADS-B
09:42PM 30.7633 -95.7315 126° Southeast 488 562 33,000  Level FlightAware ADS-B
09:43PM 30.6834 -95.6033 126° Southeast 490 564 33,000  Level FlightAware ADS-B
09:44PM 30.6432 -95.5389 126° Southeast 489 563 33,000  Level FlightAware ADS-B
09:45PM 30.5596 -95.4053 126° Southeast 488 562 33,000  Level FlightAware ADS-B
09:47PM 30.3549 -95.0805 126° Southeast 486 559 33,000  Level FlightAware ADS-B
09:48PM 30.3143 -95.0164 126° Southeast 485 558 33,000  Level FlightAware ADS-B
09:50PM 30.1117 -94.6978 126° Southeast 489 563 33,000  Level FlightAware ADS-B
09:52PM 29.9500 -94.4455 127° Southeast 488 562 33,000  Level FlightAware ADS-B
09:53PM 29.8992 -94.3678 127° Southeast 487 560 33,000  Level FlightAware ADS-B
09:54PM 29.7865 -94.2627 142° Southeast 486 559 33,000  Level FlightAware ADS-B
09:54PM 29.7412 -94.2198 141° Southeast 484 557 33,000  Level FlightAware ADS-B
09:55PM 29.6887 -94.1684 140° Southeast 483 556 33,000  Level FlightAware ADS-B
09:56PM 29.5845 -94.0672 140° Southeast 481 554 33,000  Level FlightAware ADS-B
09:56PM 29.5301 -94.0186 142° Southeast 480 552 33,000  Level FlightAware ADS-B
09:57PM 29.4651 -93.9602 142° Southeast 479 551 33,000  Level FlightAware ADS-B
09:58PM 29.4120 -93.9123 142° Southeast 479 551 33,000  Level FlightAware ADS-B
09:58PM 29.3593 -93.8645 142° Southeast 479 551 33,000  Level FlightAware ADS-B
09:59PM 29.3064 -93.8168 142° Southeast 478 550 33,000  Level FlightAware ADS-B
09:59PM 29.2542 -93.7696 142° Southeast 478 550 33,000  Level FlightAware ADS-B
10:00PM 29.2020 -93.7227 142° Southeast 478 550 33,000  Level FlightAware ADS-B
10:00PM 29.1491 -93.6751 142° Southeast 479 551 33,000  Level FlightAware ADS-B
10:01PM 29.0963 -93.6279 142° Southeast 479 551 33,000  Level FlightAware ADS-B
10:01PM 29.0435 -93.5806 142° Southeast 479 551 33,000  Level FlightAware ADS-B
10:02PM 28.9896 -93.5324 142° Southeast 479 551 33,000  Level FlightAware ADS-B
10:02PM 28.9353 -93.4841 142° Southeast 479 551 33,000  Level FlightAware ADS-B
10:03PM 28.8878 -93.4400 142° Southeast 481 554 33,000  Level Houston Center
10:04PM 28.7831 -93.3475 142° Southeast 478 550 33,000  Level Houston Center
10:05PM 28.6775 -93.2556 143° Southeast 479 551 33,000 -60 Level Houston Center
10:06PM 28.5733 -93.1600 141° Southeast 480 552 32,900  Descending Houston Center
10:07PM 28.4464 -93.0489 142° Southeast 480 552 33,000  Climbing Houston Center
10:08PM 28.3414 -92.9569 142° Southeast 478 550 32,900 -60 Descending Houston Center
10:09PM 28.2353 -92.8628 142° Southeast 482 555 32,900  Level Houston Center
10:10PM 28.1283 -92.7708 143° Southeast 483 556 32,900  Level Houston Center
10:11PM 28.0233 -92.6781 142° Southeast 479 551 32,900  Level Houston Center
10:12PM 27.9178 -92.5867 143° Southeast 479 551 32,900  Level Houston Center
10:13PM 27.8133 -92.4942 142° Southeast 478 550 32,900  Level Houston Center
10:14PM 27.7061 -92.4058 144° Southeast 477 549 32,900  Level Houston Center
10:15PM 27.6019 -92.3150 142° Southeast 473 544 33,000  Climbing Houston Center
10:16PM 27.4981 -92.2256 143° Southeast 472 543 33,000  Level Houston Center
10:17PM 27.3947 -92.1372 143° Southeast 468 539 33,000 -60 Level Houston Center
10:18PM 27.2689 -92.0306 143° Southeast 471 542 32,900 -60 Descending Houston Center
10:19PM 27.1661 -91.9414 142° Southeast 470 541 32,900  Level Houston Center
10:20PM 27.0600 -91.8569 145° Southeast 469 540 33,000  Climbing Houston Center
10:22PM 26.9010 -91.7277 144° Southeast  Level FlightAware Approximate
10:29PM 26.1304 -91.1103 145° Southeast  Level FlightAware Approximate
10:30PM 26.0198 -91.0234 145° Southeast  Level FlightAware Approximate
10:31PM 25.9090 -90.9367 145° Southeast  Level FlightAware Approximate
10:32PM 25.7983 -90.8501 145° Southeast  Level FlightAware Approximate
10:33PM 25.6874 -90.7636 145° Southeast  Level FlightAware Approximate
10:34PM 25.5765 -90.6774 145° Southeast  Level FlightAware Approximate
10:35PM 25.4656 -90.5913 145° Southeast  Level FlightAware Approximate
10:36PM 25.3546 -90.5053 145° Southeast  Level FlightAware Approximate
10:37PM 25.2436 -90.4196 145° Southeast  Level FlightAware Approximate
10:38PM 25.1325 -90.3339 145° Southeast  Level FlightAware Approximate
10:39PM 25.0214 -90.2485 145° Southeast  Level FlightAware Approximate
10:40PM 24.9102 -90.1631 145° Southeast  Level FlightAware Approximate
10:41PM 24.7990 -90.0780 145° Southeast  Level FlightAware Approximate
10:42PM 24.6877 -89.9930 145° Southeast  Level FlightAware Approximate
10:43PM 24.5764 -89.9081 145° Southeast  Level FlightAware Approximate
10:44PM 24.4667 -89.8211 146° Southeast  Level FlightAware Approximate
10:45PM 24.3540 -89.7386 146° Southeast  Level FlightAware Approximate
10:46PM 24.2444 -89.6584 146° Southeast  Level FlightAware Approximate
10:47PM 24.1347 -89.5783 146° Southeast  Level FlightAware Approximate
10:48PM 24.0253 -89.4979 145° Southeast  Level FlightAware Approximate
10:49PM 23.9170 -89.4156 145° Southeast  Level FlightAware Approximate
10:50PM 23.8088 -89.3335 145° Southeast  Level FlightAware Approximate
10:51PM 23.7004 -89.2515 145° Southeast  Level FlightAware Approximate
10:52PM 23.5921 -89.1696 145° Southeast  Level FlightAware Approximate
10:53PM 23.4836 -89.0879 145° Southeast  Level FlightAware Approximate
10:54PM 23.3752 -89.0064 145° Southeast  Level FlightAware Approximate
10:55PM 23.2667 -88.9249 145° Southeast  Level FlightAware Approximate
10:56PM 23.1582 -88.8435 145° Southeast  Level FlightAware Approximate
10:57PM 23.0502 -88.7614 145° Southeast  Level FlightAware Approximate
10:58PM 22.9422 -88.6793 145° Southeast  Level FlightAware Approximate
10:59PM 22.8342 -88.5974 145° Southeast  Level FlightAware Approximate
11:00PM 22.7261 -88.5157 145° Southeast  Level FlightAware Approximate
11:01PM 22.6247 -88.4249 137° Southeast  Level FlightAware Approximate
11:02PM 22.5277 -88.3283 137° Southeast  Level FlightAware Approximate
11:03PM 22.4306 -88.2319 137° Southeast  Level FlightAware Approximate
11:04PM 22.3335 -88.1356 137° Southeast  Level FlightAware Approximate
11:05PM 22.2363 -88.0395 138° Southeast  Level FlightAware Approximate
11:06PM 22.1390 -87.9434 138° Southeast  Level FlightAware Approximate
11:06PM 22.1250 -87.7640 138° Southeast 506 582 35,000  Level FlightAware
11:07PM 22.0417 -87.8475 138° Southeast  Level FlightAware Approximate
11:07PM 22.0420 -87.6890 140° Southeast 505 581 35,000  Level FlightAware
11:08PM 21.9450 -87.6010 140° Southeast 508 585 35,000  Level FlightAware
11:09PM 21.8600 -87.5250 140° Southeast 507 583 35,000  Level FlightAware
11:09PM 21.7960 -87.4670 140° Southeast 506 582 35,000  Level FlightAware
11:10PM 21.6810 -87.3630 140° Southeast 504 580 35,000  Level FlightAware
11:11PM 21.6200 -87.3060 139° Southeast 504 580 35,000  Level FlightAware
11:12PM 21.5110 -87.2100 141° Southeast 502 578 35,000  Level FlightAware
11:13PM 21.4460 -87.1510 140° Southeast 502 578 35,000  Level FlightAware
11:13PM 21.3610 -87.0760 141° Southeast 503 579 35,000  Level FlightAware
11:14PM 21.2860 -87.0080 140° Southeast 503 579 35,000  Level FlightAware
11:15PM 21.2250 -86.9540 140° Southeast 503 579 35,000  Level FlightAware
11:15PM 21.1390 -86.8770 140° Southeast 501 577 35,000  Level FlightAware
11:16PM 21.0620 -86.8090 141° Southeast 504 580 35,000  Level FlightAware
11:17PM 20.9860 -86.7410 140° Southeast 505 581 35,000  Level FlightAware
11:18PM 20.9090 -86.6730 140° Southeast 506 582 35,000  Level FlightAware
11:18PM 20.8340 -86.6070 141° Southeast 506 582 35,000  Level FlightAware
11:19PM 20.7630 -86.5440 140° Southeast 507 583 35,000  Level FlightAware
11:20PM 20.6940 -86.4830 140° Southeast 507 583 35,000  Level FlightAware
11:20PM 20.6110 -86.4090 140° Southeast 507 583 35,000  Level FlightAware
11:21PM 20.5330 -86.3400 140° Southeast 507 583 35,000  Level FlightAware
11:22PM 20.4580 -86.2740 140° Southeast 507 583 35,000  Level FlightAware
11:22PM 20.4030 -86.2240 140° Southeast 507 583 35,000  Level FlightAware
11:23PM 20.2900 -86.1250 141° Southeast 507 583 35,000  Level FlightAware
11:24PM 20.2360 -86.0770 140° Southeast 507 583 35,000  Level FlightAware
11:25PM 20.1380 -85.9930 141° Southeast 507 583 35,000  Level FlightAware
11:25PM 20.0490 -85.9150 141° Southeast 505 581 35,000  Level FlightAware
11:26PM 19.9750 -85.8490 140° Southeast 506 582 35,000  Level FlightAware
11:27PM 19.8970 -85.7740 138° Southeast 507 583 35,000  Level FlightAware
11:28PM 19.8240 -85.7040 138° Southeast 508 585 35,000  Level FlightAware
11:28PM 19.7540 -85.6380 138° Southeast 507 583 35,000  Level FlightAware
11:29PM 19.6780 -85.5670 139° Southeast 507 583 35,000  Level FlightAware
11:30PM 19.6220 -85.5130 138° Southeast 507 583 35,000  Level FlightAware
11:30PM 19.5290 -85.4280 139° Southeast 505 581 35,000  Level FlightAware
11:31PM 19.4650 -85.3680 139° Southeast 504 580 35,000  Level FlightAware
11:32PM 19.3830 -85.2910 138° Southeast 503 579 35,000  Level FlightAware
11:32PM 19.3240 -85.2350 138° Southeast 503 579 35,000  Level FlightAware
11:33PM 19.2470 -85.1640 139° Southeast 500 575 35,000  Level FlightAware
11:34PM 19.1900 -85.1100 138° Southeast 500 575 35,000  Level FlightAware
11:35PM 19.1190 -85.0420 138° Southeast 500 575 35,000  Level FlightAware
11:35PM 19.0660 -84.9920 138° Southeast 500 575 35,000  Level FlightAware
11:36PM 18.9960 -84.9250 138° Southeast 500 575 35,000  Level FlightAware
11:37PM 18.9420 -84.8730 138° Southeast 500 575 35,000  Level FlightAware
11:37PM 18.8720 -84.8070 138° Southeast 500 575 35,000  Level FlightAware
11:38PM 18.8220 -84.7590 138° Southeast 500 575 35,000  Level FlightAware
11:39PM 18.7510 -84.6910 138° Southeast 500 575 35,000  Level FlightAware
11:39PM 18.6970 -84.6400 138° Southeast 500 575 35,000  Level FlightAware
11:40PM 18.6280 -84.5750 138° Southeast 500 575 35,000  Level FlightAware
11:41PM 18.5750 -84.5250 138° Southeast 500 575 35,000  Level FlightAware
11:42PM 18.5040 -84.4570 138° Southeast 500 575 35,000  Level FlightAware
11:42PM 18.4540 -84.4090 138° Southeast 500 575 35,000  Level FlightAware
11:43PM 18.3820 -84.3420 139° Southeast 500 575 35,000  Level FlightAware
11:46PM 18.2050 -84.0439 122° Southeast  Level FlightAware Approximate
11:47PM 18.1350 -83.9263 122° Southeast  Level FlightAware Approximate
11:48PM 18.0650 -83.8089 122° Southeast  Level FlightAware Approximate
11:49PM 17.9948 -83.6916 122° Southeast  Level FlightAware Approximate
11:50PM 17.9155 -83.5810 135° Southeast  Level FlightAware Approximate
11:51PM 17.8214 -83.4839 135° Southeast  Level FlightAware Approximate
11:52PM 17.7274 -83.3870 136° Southeast  Level FlightAware Approximate
11:53PM 17.6333 -83.2902 136° Southeast  Level FlightAware Approximate
11:54PM 17.5391 -83.1935 136° Southeast  Level FlightAware Approximate
11:55PM 17.4449 -83.0968 136° Southeast  Level FlightAware Approximate
11:56PM 17.3499 -83.0013 139° Southeast  Level FlightAware Approximate
11:57PM 17.2506 -82.9105 139° Southeast  Level FlightAware Approximate
11:58PM 17.1513 -82.8198 139° Southeast  Level FlightAware Approximate
11:59PM 17.0519 -82.7293 139° Southeast  Level FlightAware Approximate
12:00AM 16.9525 -82.6388 139° Southeast  Level FlightAware Approximate
12:01AM 16.8531 -82.5484 139° Southeast  Level FlightAware Approximate
12:02AM 16.7536 -82.4581 139° Southeast  Level FlightAware Approximate
12:03AM 16.6541 -82.3679 139° Southeast  Level FlightAware Approximate
12:04AM 16.5546 -82.2778 139° Southeast  Level FlightAware Approximate
12:05AM 16.4550 -82.1878 139° Southeast  Level FlightAware Approximate
12:06AM 16.3523 -82.1017 141° Southeast  Level FlightAware Approximate
12:07AM 16.2494 -82.0159 141° Southeast  Level FlightAware Approximate
12:08AM 16.1465 -81.9302 141° Southeast  Level FlightAware Approximate
12:09AM 16.0435 -81.8446 141° Southeast  Level FlightAware Approximate
12:10AM 15.9405 -81.7591 141° Southeast  Level FlightAware Approximate
12:11AM 15.8375 -81.6737 141° Southeast  Level FlightAware Approximate
12:12AM 15.7344 -81.5883 141° Southeast  Level FlightAware Approximate
12:13AM 15.6313 -81.5031 141° Southeast  Level FlightAware Approximate
12:14AM 15.5282 -81.4179 141° Southeast  Level FlightAware Approximate
12:15AM 15.4251 -81.3328 142° Southeast  Level FlightAware Approximate
12:16AM 15.3219 -81.2478 142° Southeast  Level FlightAware Approximate
12:17AM 15.2186 -81.1629 142° Southeast  Level FlightAware Approximate
12:18AM 15.1154 -81.0780 142° Southeast  Level FlightAware Approximate
12:19AM 15.0119 -80.9931 142° Southeast  Level FlightAware Approximate
12:20AM 14.9090 -80.9076 141° Southeast  Level FlightAware Approximate
12:21AM 14.8061 -80.8221 141° Southeast  Level FlightAware Approximate
12:22AM 14.7031 -80.7366 141° Southeast  Level FlightAware Approximate
12:23AM 14.6002 -80.6512 141° Southeast  Level FlightAware Approximate
12:24AM 14.4972 -80.5659 141° Southeast  Level FlightAware Approximate
12:25AM 14.3941 -80.4807 141° Southeast  Level FlightAware Approximate
12:26AM 14.2910 -80.3956 141° Southeast  Level FlightAware Approximate
12:27AM 14.1879 -80.3105 141° Southeast  Level FlightAware Approximate
12:28AM 14.0848 -80.2255 141° Southeast  Level FlightAware Approximate
12:29AM 13.9817 -80.1406 141° Southeast  Level FlightAware Approximate
12:30AM 13.8785 -80.0557 141° Southeast  Level FlightAware Approximate
12:31AM 13.7752 -79.9710 141° Southeast  Level FlightAware Approximate
12:32AM 13.6720 -79.8863 141° Southeast  Level FlightAware Approximate
12:33AM 13.5687 -79.8017 141° Southeast  Level FlightAware Approximate
12:34AM 13.4651 -79.7176 142° Southeast  Level FlightAware Approximate
12:35AM 13.3614 -79.6336 142° Southeast  Level FlightAware Approximate
12:36AM 13.2577 -79.5497 142° Southeast  Level FlightAware Approximate
12:37AM 13.1539 -79.4659 142° Southeast  Level FlightAware Approximate
12:38AM 13.0501 -79.3821 142° Southeast  Level FlightAware Approximate
12:39AM 12.9463 -79.2984 142° Southeast  Level FlightAware Approximate
12:40AM 12.8425 -79.2148 142° Southeast  Level FlightAware Approximate
12:41AM 12.7386 -79.1312 142° Southeast  Level FlightAware Approximate
12:42AM 12.6347 -79.0477 142° Southeast  Level FlightAware Approximate
12:43AM 12.5308 -78.9643 142° Southeast  Level FlightAware Approximate
12:44AM 12.4269 -78.8810 142° Southeast  Level FlightAware Approximate
12:45AM 12.3229 -78.7977 142° Southeast  Level FlightAware Approximate
12:46AM 12.2189 -78.7144 142° Southeast  Level FlightAware Approximate
12:47AM 12.1149 -78.6313 142° Southeast  Level FlightAware Approximate
12:48AM 12.0109 -78.5482 142° Southeast  Level FlightAware Approximate
12:49AM 11.9068 -78.4651 142° Southeast  Level FlightAware Approximate
12:50AM 11.8027 -78.3822 142° Southeast  Level FlightAware Approximate
12:51AM 11.6986 -78.2993 142° Southeast  Level FlightAware Approximate
12:52AM 11.5945 -78.2164 142° Southeast  Level FlightAware Approximate
12:53AM 11.4903 -78.1337 142° Southeast  Level FlightAware Approximate
12:54AM 11.3861 -78.0509 142° Southeast  Level FlightAware Approximate
12:55AM 11.2819 -77.9683 142° Southeast  Level FlightAware Approximate
12:56AM 11.1777 -77.8857 142° Southeast  Level FlightAware Approximate
12:57AM 11.0735 -77.8031 142° Southeast  Level FlightAware Approximate
12:58AM 10.9692 -77.7207 142° Southeast  Level FlightAware Approximate
12:59AM 10.8649 -77.6382 142° Southeast  Level FlightAware Approximate
12:59AM 10.3100 -77.0620 142° Southeast 489 563 37,000  Level FlightAware
01:00AM 10.7606 -77.5559 142° Southeast  Level FlightAware Approximate
01:00AM 10.2490 -76.9990 135° Southeast 489 563 37,000  Level FlightAware
01:01AM 10.1740 -76.9230 135° Southeast 491 565 37,000  Level FlightAware
01:01AM 10.1110 -76.8570 134° Southeast 491 565 37,000  Level FlightAware
01:02AM 10.0470 -76.7910 135° Southeast 492 566 37,000  Level FlightAware
01:03AM 9.9740 -76.7170 135° Southeast 491 565 37,000  Level FlightAware
01:03AM 9.9050 -76.6460 135° Southeast 488 562 37,000  Level FlightAware
01:04AM 9.8400 -76.5790 135° Southeast 487 560 37,000  Level FlightAware
01:05AM 9.7610 -76.4990 135° Southeast 486 559 37,000  Level FlightAware
01:06AM 9.6840 -76.4190 134° Southeast 485 558 37,000  Level FlightAware
01:07AM 9.6040 -76.3380 135° Southeast 484 557 37,000  Level FlightAware
01:07AM 9.5330 -76.2650 135° Southeast 483 556 37,000  Level FlightAware
01:08AM 9.4620 -76.1920 135° Southeast 484 557 37,000  Level FlightAware
01:09AM 9.4090 -76.1380 135° Southeast 486 559 37,000  Level FlightAware
01:09AM 9.3370 -76.0650 135° Southeast 487 560 37,000  Level FlightAware
01:10AM 9.2690 -75.9960 135° Southeast 486 559 37,000  Level FlightAware
01:11AM 9.1930 -75.9190 135° Southeast 486 559 37,000  Level FlightAware
01:12AM 9.1230 -75.8470 135° Southeast 484 557 37,000  Level FlightAware
01:12AM 9.0710 -75.7940 135° Southeast 484 557 37,000  Level FlightAware
01:13AM 8.9960 -75.7170 135° Southeast 482 555 37,000  Level FlightAware
01:14AM 8.9250 -75.6450 135° Southeast 483 556 37,000  Level FlightAware
01:14AM 8.8620 -75.5810 135° Southeast 484 557 37,000  Level FlightAware
01:16AM 8.7320 -75.4490 135° Southeast 486 559 37,000  Level FlightAware
01:17AM 8.6810 -75.3970 135° Southeast 486 559 37,000  Level FlightAware
01:17AM 8.5930 -75.3090 135° Southeast 487 560 37,000  Level FlightAware
01:18AM 8.5190 -75.2330 135° Southeast 486 559 37,000  Level FlightAware
01:19AM 8.4600 -75.1730 135° Southeast 486 559 37,000  Level FlightAware
01:19AM 8.3960 -75.1090 135° Southeast 489 563 37,000  Level FlightAware
01:20AM 8.3280 -75.0390 134° Southeast 490 564 37,000  Level FlightAware
01:21AM 8.2160 -74.9270 135° Southeast 489 563 37,000  Level FlightAware
01:22AM 8.1530 -74.8630 135° Southeast 488 562 37,000  Level FlightAware
01:23AM 8.0760 -74.7850 135° Southeast 489 563 37,000  Level FlightAware
01:23AM 8.0150 -74.7230 135° Southeast 489 563 37,000  Level FlightAware
01:24AM 7.9420 -74.6490 135° Southeast 490 564 37,000  Level FlightAware
01:25AM 7.8800 -74.5870 135° Southeast 491 565 37,000  Level FlightAware
01:26AM 7.7940 -74.5000 135° Southeast 491 565 37,000  Level FlightAware
01:27AM 7.6900 -74.4050 138° Southeast 493 567 37,000  Level FlightAware
01:27AM 7.6220 -74.3450 139° Southeast 493 567 37,000  Level FlightAware
01:28AM 7.5460 -74.2760 138° Southeast 493 567 37,000  Level FlightAware
01:29AM 7.4590 -74.1970 138° Southeast 494 568 37,000  Level FlightAware
01:30AM 7.3540 -74.1010 138° Southeast 494 568 37,000  Level FlightAware
01:31AM 7.3020 -74.0540 138° Southeast 494 568 37,000  Level FlightAware
01:32AM 7.2330 -73.9910 138° Southeast 494 568 37,000  Level FlightAware
01:32AM 7.1820 -73.9450 138° Southeast 494 568 37,000  Level FlightAware
01:33AM 7.1160 -73.8850 138° Southeast 494 568 37,000  Level FlightAware
01:34AM 7.0640 -73.8380 138° Southeast 494 568 37,000  Level FlightAware
01:34AM 6.8710 -73.7200 149° Southeast 494 568 37,000  Level FlightAware
01:35AM 6.7930 -73.6780 152° Southeast 493 567 37,000  Level FlightAware
01:36AM 6.7050 -73.6300 152° Southeast 492 566 37,000  Level FlightAware
01:36AM 6.6280 -73.5890 152° Southeast 491 565 37,000  Level FlightAware
01:37AM 6.5380 -73.5400 152° Southeast 489 563 37,000  Level FlightAware
01:38AM 6.4590 -73.4970 152° Southeast 489 563 37,000  Level FlightAware
01:39AM 6.3670 -73.4480 152° Southeast 489 563 37,000  Level FlightAware
01:39AM 6.2870 -73.4050 152° Southeast 489 563 37,000  Level FlightAware
01:40AM 6.2030 -73.3590 151° Southeast 489 563 37,000  Level FlightAware
01:41AM 6.1170 -73.3130 152° Southeast 490 564 37,000  Level FlightAware
01:41AM 6.0520 -73.2760 150° Southeast 490 564 37,000  Level FlightAware
01:42AM 5.9490 -73.2190 151° Southeast 490 564 37,000  Level FlightAware
01:43AM 5.8880 -73.1850 151° Southeast 490 564 37,000  Level FlightAware
01:44AM 5.8060 -73.1390 151° Southeast 490 564 37,000  Level FlightAware
01:44AM 5.7400 -73.1030 152° Southeast 490 564 37,000  Level FlightAware
01:47AM 5.5349 -72.9256 139° Southeast  Level Estimated
01:48AM 5.4348 -72.8391 139° Southeast  Level Estimated
01:48AM 5.1960 -72.8170 139° Southeast 488 562 37,000  Level FlightAware
01:49AM 5.1190 -72.7750 151° Southeast 488 562 37,000  Level FlightAware
01:50AM 5.0170 -72.7190 151° Southeast 488 562 37,000  Level FlightAware
01:51AM 4.9530 -72.6840 151° Southeast 488 562 37,000  Level FlightAware
01:52AM 4.8540 -72.6280 151° Southeast 488 562 37,000  Level FlightAware
01:52AM 4.7930 -72.5950 152° Southeast 488 562 37,000  Level FlightAware
01:53AM 4.7130 -72.5500 151° Southeast 488 562 37,000  Level FlightAware
01:54AM 4.6540 -72.5170 151° Southeast 488 562 37,000  Level FlightAware
01:54AM 4.5720 -72.4720 151° Southeast 488 562 37,000  Level FlightAware
01:55AM 4.4910 -72.4270 151° Southeast 488 562 37,000  Level FlightAware
01:56AM 4.4110 -72.3820 151° Southeast 488 562 37,000  Level FlightAware
01:57AM 4.3500 -72.3480 151° Southeast 488 562 37,000  Level FlightAware
01:57AM 4.2700 -72.3040 151° Southeast 488 562 37,000  Level FlightAware
01:58AM 4.2070 -72.2690 151° Southeast 488 562 37,000  Level FlightAware
01:59AM 4.1290 -72.2250 151° Southeast 488 562 37,000  Level FlightAware
02:01AM 3.9617 -72.0784 139° Southeast  Level Estimated
02:02AM 3.8623 -71.9913 139° Southeast  Level Estimated
02:03AM 3.7628 -71.9043 139° Southeast  Level Estimated
02:04AM 3.6634 -71.8173 139° Southeast  Level Estimated
02:05AM 3.5640 -71.7303 139° Southeast  Level Estimated
02:06AM 3.4649 -71.6436 139° Southeast  Level Estimated
02:07AM 3.3658 -71.5570 139° Southeast  Level Estimated
02:08AM 3.2666 -71.4703 139° Southeast  Level Estimated
02:09AM 3.1675 -71.3837 139° Southeast  Level Estimated
02:10AM 3.0684 -71.2971 139° Southeast  Level Estimated
02:11AM 2.9693 -71.2105 139° Southeast  Level Estimated
02:12AM 2.8701 -71.1239 139° Southeast  Level Estimated
02:13AM 2.7710 -71.0374 139° Southeast  Level Estimated
02:14AM 2.6718 -70.9508 139° Southeast  Level Estimated
02:15AM 2.5726 -70.8643 139° Southeast  Level Estimated
02:16AM 2.4735 -70.7778 139° Southeast  Level Estimated
02:17AM 2.3743 -70.6913 139° Southeast  Level Estimated
02:18AM 2.2751 -70.6048 139° Southeast  Level Estimated
02:19AM 2.1760 -70.5183 139° Southeast  Level Estimated
02:20AM 2.0768 -70.4318 139° Southeast  Level Estimated
02:21AM 1.9776 -70.3454 139° Southeast  Level Estimated
02:22AM 1.8784 -70.2589 139° Southeast  Level Estimated
02:23AM 1.7792 -70.1725 139° Southeast  Level Estimated
02:24AM 1.6800 -70.0861 139° Southeast  Level Estimated
02:25AM 1.5807 -69.9996 139° Southeast  Level Estimated
02:26AM 1.4817 -69.9134 139° Southeast  Level Estimated
02:27AM 1.3827 -69.8271 139° Southeast  Level Estimated
02:28AM 1.2836 -69.7409 139° Southeast  Level Estimated
02:29AM 1.1846 -69.6546 139° Southeast  Level Estimated
02:30AM 1.0855 -69.5684 139° Southeast  Level Estimated
02:31AM 0.9865 -69.4822 139° Southeast  Level Estimated
02:32AM 0.8874 -69.3960 139° Southeast  Level Estimated
02:33AM 0.7883 -69.3098 139° Southeast  Level Estimated
02:34AM 0.6893 -69.2236 139° Southeast  Level Estimated
02:35AM 0.5902 -69.1374 139° Southeast  Level Estimated
02:36AM 0.4912 -69.0511 139° Southeast  Level Estimated
02:37AM 0.3921 -68.9650 139° Southeast  Level Estimated
02:38AM 0.2930 -68.8788 139° Southeast  Level Estimated
02:39AM 0.1940 -68.7925 139° Southeast  Level Estimated
02:40AM 0.0949 -68.7064 139° Southeast  Level Estimated
02:41AM -0.0041 -68.6201 139° Southeast  Level Estimated
02:42AM -0.1032 -68.5340 139° Southeast  Level Estimated
02:43AM -0.2023 -68.4477 139° Southeast  Level Estimated
02:44AM -0.3013 -68.3615 139° Southeast  Level Estimated
02:45AM -0.4004 -68.2754 139° Southeast  Level Estimated
02:46AM -0.4995 -68.1891 139° Southeast  Level Estimated
02:47AM -0.5985 -68.1030 139° Southeast  Level Estimated
02:48AM -0.6976 -68.0167 139° Southeast  Level Estimated
02:49AM -0.7966 -67.9305 139° Southeast  Level Estimated
02:50AM -0.8957 -67.8443 139° Southeast  Level Estimated
02:51AM -0.9948 -67.7581 139° Southeast  Level Estimated
02:52AM -1.0938 -67.6719 139° Southeast  Level Estimated
02:53AM -1.1929 -67.5856 139° Southeast  Level Estimated
02:54AM -1.2919 -67.4994 139° Southeast  Level Estimated
02:55AM -1.3910 -67.4132 139° Southeast  Level Estimated
02:56AM -1.4900 -67.3269 139° Southeast  Level Estimated
02:57AM -1.5890 -67.2407 139° Southeast  Level Estimated
02:58AM -1.6881 -67.1544 139° Southeast  Level Estimated
02:59AM -1.7871 -67.0681 139° Southeast  Level Estimated
03:00AM -1.8861 -66.9818 139° Southeast  Level Estimated
03:01AM -1.9851 -66.8955 139° Southeast  Level Estimated
03:02AM -2.0842 -66.8092 139° Southeast  Level Estimated
03:03AM -2.1832 -66.7229 139° Southeast  Level Estimated
03:04AM -2.2822 -66.6366 139° Southeast  Level Estimated
03:05AM -2.3812 -66.5502 139° Southeast  Level Estimated
03:06AM -2.4802 -66.4639 139° Southeast  Level Estimated
03:07AM -2.5792 -66.3775 139° Southeast  Level Estimated
03:08AM -2.6782 -66.2912 139° Southeast  Level Estimated
03:09AM -2.7771 -66.2048 139° Southeast  Level Estimated
03:10AM -2.8761 -66.1184 139° Southeast  Level Estimated
03:11AM -2.9751 -66.0319 139° Southeast  Level Estimated
03:12AM -3.0740 -65.9455 139° Southeast  Level Estimated
03:13AM -3.1730 -65.8590 139° Southeast  Level Estimated
03:14AM -3.2720 -65.7726 139° Southeast  Level Estimated
03:15AM -3.3709 -65.6861 139° Southeast  Level Estimated
03:16AM -3.4698 -65.5996 139° Southeast  Level Estimated
03:17AM -3.5687 -65.5131 139° Southeast  Level Estimated
03:18AM -3.6677 -65.4265 139° Southeast  Level Estimated
03:19AM -3.7666 -65.3400 139° Southeast  Level Estimated
03:20AM -3.8655 -65.2534 139° Southeast  Level Estimated
03:21AM -3.9644 -65.1668 139° Southeast  Level Estimated
03:22AM -4.0632 -65.0802 139° Southeast  Level Estimated
03:23AM -4.1621 -64.9935 139° Southeast  Level Estimated
03:24AM -4.2610 -64.9069 139° Southeast  Level Estimated
03:25AM -4.3598 -64.8202 139° Southeast  Level Estimated
03:26AM -4.4587 -64.7335 139° Southeast  Level Estimated
03:27AM -4.5575 -64.6467 139° Southeast  Level Estimated
03:28AM -4.6563 -64.5600 139° Southeast  Level Estimated
03:29AM -4.7551 -64.4732 139° Southeast  Level Estimated
03:30AM -4.8539 -64.3864 139° Southeast  Level Estimated
03:31AM -4.9527 -64.2996 139° Southeast  Level Estimated
03:32AM -5.0515 -64.2127 139° Southeast  Level Estimated
03:33AM -5.1503 -64.1258 139° Southeast  Level Estimated
03:34AM -5.2490 -64.0389 139° Southeast  Level Estimated
03:35AM -5.3478 -63.9520 139° Southeast  Level Estimated
03:36AM -5.4465 -63.8650 139° Southeast  Level Estimated
03:37AM -5.5452 -63.7780 139° Southeast  Level Estimated
03:38AM -5.6439 -63.6910 139° Southeast  Level Estimated
03:39AM -5.7426 -63.6039 139° Southeast  Level Estimated
03:40AM -5.8413 -63.5169 139° Southeast  Level Estimated
03:41AM -5.9399 -63.4297 139° Southeast  Level Estimated
03:42AM -6.0386 -63.3426 139° Southeast  Level Estimated
03:43AM -6.1372 -63.2554 139° Southeast  Level Estimated
03:44AM -6.2359 -63.1682 139° Southeast  Level Estimated
03:45AM -6.3345 -63.0810 139° Southeast  Level Estimated
03:46AM -6.4331 -62.9937 139° Southeast  Level Estimated
03:47AM -6.5316 -62.9064 139° Southeast  Level Estimated
03:48AM -6.6302 -62.8190 139° Southeast  Level Estimated
03:49AM -6.7288 -62.7317 139° Southeast  Level Estimated
03:50AM -6.8273 -62.6443 139° Southeast  Level Estimated
03:51AM -6.9258 -62.5568 139° Southeast  Level Estimated
03:52AM -7.0243 -62.4693 139° Southeast  Level Estimated
03:53AM -7.1228 -62.3818 139° Southeast  Level Estimated
03:54AM -7.2213 -62.2942 139° Southeast  Level Estimated
03:55AM -7.3197 -62.2066 139° Southeast  Level Estimated
03:56AM -7.4182 -62.1190 139° Southeast  Level Estimated
03:57AM -7.5166 -62.0313 139° Southeast  Level Estimated
03:58AM -7.6150 -61.9436 139° Southeast  Level Estimated
03:59AM -7.7134 -61.8558 139° Southeast  Level Estimated
04:00AM -7.8117 -61.7680 139° Southeast  Level Estimated
04:01AM -7.9101 -61.6802 139° Southeast  Level Estimated
04:02AM -8.0084 -61.5923 138° Southeast  Level Estimated
04:03AM -8.1067 -61.5044 138° Southeast  Level Estimated
04:04AM -8.2047 -61.4167 138° Southeast  Level Estimated
04:05AM -8.3026 -61.3290 138° Southeast  Level Estimated
04:06AM -8.4005 -61.2413 138° Southeast  Level Estimated
04:07AM -8.4984 -61.1535 138° Southeast  Level Estimated
04:08AM -8.5963 -61.0657 138° Southeast  Level Estimated
04:09AM -8.6941 -60.9778 138° Southeast  Level Estimated
04:10AM -8.7920 -60.8899 138° Southeast  Level Estimated
04:11AM -8.8898 -60.8019 138° Southeast  Level Estimated
04:12AM -8.9875 -60.7139 138° Southeast  Level Estimated
04:13AM -9.0853 -60.6258 138° Southeast  Level Estimated
04:14AM -9.1831 -60.5377 138° Southeast  Level Estimated
04:15AM -9.2808 -60.4495 138° Southeast  Level Estimated
04:16AM -9.3785 -60.3613 138° Southeast  Level Estimated
04:17AM -9.4762 -60.2731 138° Southeast  Level Estimated
04:18AM -9.5738 -60.1848 138° Southeast  Level Estimated
04:19AM -9.6715 -60.0964 138° Southeast  Level Estimated
04:20AM -9.7691 -60.0080 138° Southeast  Level Estimated
04:21AM -9.8667 -59.9195 138° Southeast  Level Estimated
04:22AM -9.9643 -59.8310 138° Southeast  Level Estimated
04:23AM -10.0618 -59.7424 138° Southeast  Level Estimated
04:24AM -10.1593 -59.6538 138° Southeast  Level Estimated
04:25AM -10.2568 -59.5651 138° Southeast  Level Estimated
04:26AM -10.3543 -59.4764 138° Southeast  Level Estimated
04:27AM -10.4517 -59.3876 138° Southeast  Level Estimated
04:28AM -10.5492 -59.2988 138° Southeast  Level Estimated
04:29AM -10.6466 -59.2099 138° Southeast  Level Estimated
04:30AM -10.7440 -59.1209 138° Southeast  Level Estimated
04:31AM -10.8413 -59.0319 138° Southeast  Level Estimated
04:32AM -10.9386 -58.9428 138° Southeast  Level Estimated
04:33AM -11.0359 -58.8537 138° Southeast  Level Estimated
04:34AM -11.1332 -58.7645 138° Southeast  Level Estimated
04:35AM -11.2304 -58.6752 138° Southeast  Level Estimated
04:36AM -11.3277 -58.5859 138° Southeast  Level Estimated
04:37AM -11.4249 -58.4966 138° Southeast  Level Estimated
04:38AM -11.5220 -58.4071 138° Southeast  Level Estimated
04:39AM -11.6192 -58.3176 138° Southeast  Level Estimated
04:40AM -11.7163 -58.2281 138° Southeast  Level Estimated
04:41AM -11.8134 -58.1385 138° Southeast  Level Estimated
04:42AM -11.9104 -58.0488 138° Southeast  Level Estimated
04:43AM -12.0075 -57.9590 138° Southeast  Level Estimated
04:44AM -12.1045 -57.8692 138° Southeast  Level Estimated
04:45AM -12.2014 -57.7793 138° Southeast  Level Estimated
04:46AM -12.2984 -57.6894 138° Southeast  Level Estimated
04:47AM -12.3953 -57.5994 138° Southeast  Level Estimated
04:48AM -12.4922 -57.5093 138° Southeast  Level Estimated
04:49AM -12.5890 -57.4192 138° Southeast  Level Estimated
04:50AM -12.6858 -57.3290 138° Southeast  Level Estimated
04:51AM -12.7826 -57.2387 138° Southeast  Level Estimated
04:52AM -12.8794 -57.1483 138° Southeast  Level Estimated
04:53AM -12.9761 -57.0579 138° Southeast  Level Estimated
04:54AM -13.0728 -56.9674 138° Southeast  Level Estimated
04:55AM -13.1695 -56.8769 138° Southeast  Level Estimated
04:56AM -13.2661 -56.7862 138° Southeast  Level Estimated
04:57AM -13.3627 -56.6955 138° Southeast  Level Estimated
04:58AM -13.4593 -56.6048 138° Southeast  Level Estimated
04:59AM -13.5558 -56.5139 138° Southeast  Level Estimated
05:00AM -13.6523 -56.4230 138° Southeast  Level Estimated
05:01AM -13.7488 -56.3320 138° Southeast  Level Estimated
05:02AM -13.8452 -56.2409 137° Southeast  Level Estimated
05:03AM -13.9416 -56.1498 137° Southeast  Level Estimated
05:04AM -14.0380 -56.0585 137° Southeast  Level Estimated
05:05AM -14.1343 -55.9672 137° Southeast  Level Estimated
05:06AM -14.2306 -55.8759 137° Southeast  Level Estimated
05:07AM -14.3269 -55.7844 137° Southeast  Level Estimated
05:08AM -14.4231 -55.6928 137° Southeast  Level Estimated
05:09AM -14.5193 -55.6012 137° Southeast  Level Estimated
05:10AM -14.6155 -55.5095 137° Southeast  Level Estimated
05:11AM -14.7116 -55.4178 137° Southeast  Level Estimated
05:12AM -14.8077 -55.3259 137° Southeast  Level Estimated
05:13AM -14.9038 -55.2340 137° Southeast  Level Estimated
05:14AM -14.9998 -55.1420 137° Southeast  Level Estimated
05:15AM -15.0958 -55.0499 137° Southeast  Level Estimated
05:16AM -15.1917 -54.9577 137° Southeast  Level Estimated
05:17AM -15.2876 -54.8654 137° Southeast  Level Estimated
05:18AM -15.3835 -54.7730 137° Southeast  Level Estimated
05:19AM -15.4793 -54.6806 137° Southeast  Level Estimated
05:20AM -15.5751 -54.5881 137° Southeast  Level Estimated
05:21AM -15.6708 -54.4955 137° Southeast  Level Estimated
05:22AM -15.7666 -54.4028 137° Southeast  Level Estimated
05:23AM -15.8622 -54.3100 137° Southeast  Level Estimated
05:24AM -15.9579 -54.2171 137° Southeast  Level Estimated
05:25AM -16.0534 -54.1242 137° Southeast  Level Estimated
05:26AM -16.1490 -54.0311 137° Southeast  Level Estimated
05:27AM -16.2445 -53.9380 137° Southeast  Level Estimated
05:28AM -16.3400 -53.8447 137° Southeast  Level Estimated
05:29AM -16.4354 -53.7514 137° Southeast  Level Estimated
05:30AM -16.5308 -53.6580 137° Southeast  Level Estimated
05:31AM -16.6261 -53.5645 137° Southeast  Level Estimated
05:32AM -16.7215 -53.4709 137° Southeast  Level Estimated
05:33AM -16.8167 -53.3772 137° Southeast  Level Estimated
05:34AM -16.9119 -53.2834 137° Southeast  Level Estimated
05:35AM -17.0071 -53.1895 137° Southeast  Level Estimated
05:36AM -17.1022 -53.0956 137° Southeast  Level Estimated
05:37AM -17.1973 -53.0015 137° Southeast  Level Estimated
05:38AM -17.2924 -52.9073 137° Southeast  Level Estimated
05:39AM -17.3874 -52.8131 137° Southeast  Level Estimated
05:40AM -17.4823 -52.7187 137° Southeast  Level Estimated
05:41AM -17.5773 -52.6242 137° Southeast  Level Estimated
05:42AM -17.6721 -52.5297 136° Southeast  Level Estimated
05:43AM -17.7670 -52.4350 136° Southeast  Level Estimated
05:44AM -17.8617 -52.3402 136° Southeast  Level Estimated
05:45AM -17.9565 -52.2454 136° Southeast  Level Estimated
05:46AM -18.0512 -52.1504 136° Southeast  Level Estimated
05:47AM -18.1458 -52.0554 136° Southeast  Level Estimated
05:48AM -18.2404 -51.9602 136° Southeast  Level Estimated
05:49AM -18.3350 -51.8649 136° Southeast  Level Estimated
05:50AM -18.4295 -51.7695 136° Southeast  Level Estimated
05:51AM -18.5239 -51.6740 136° Southeast  Level Estimated
05:52AM -18.6183 -51.5784 136° Southeast  Level Estimated
05:52AM -19.1510 -50.5050 136° Southeast 507 583 37,000  Level FlightAware
05:53AM -18.7127 -51.4827 136° Southeast  Level Estimated
05:54AM -18.8070 -51.3870 136° Southeast  Level Estimated
05:54AM -19.3920 -50.2410 134° Southeast 506 582 37,000  Level FlightAware
05:57AM -19.6047 -50.0493 140° Southeast  Level Estimated
05:58AM -19.7044 -49.9592 140° Southeast  Level Estimated
05:59AM -19.8040 -49.8690 140° Southeast  Level Estimated
06:00AM -19.9036 -49.7787 140° Southeast  Level Estimated
06:00AM -19.9290 -49.6530 140° Southeast 494 568 37,000  Level FlightAware
06:01AM -19.9950 -49.5800 134° Southeast 494 568 37,000  Level FlightAware
06:01AM -20.0660 -49.5030 134° Southeast 492 566 37,000  Level FlightAware
06:02AM -20.1290 -49.4330 134° Southeast 490 564 37,000  Level FlightAware
06:03AM -20.1910 -49.3650 134° Southeast 490 564 37,000  Level FlightAware
06:03AM -20.2610 -49.2870 134° Southeast 489 563 37,000  Level FlightAware
06:04AM -20.3300 -49.2110 134° Southeast 487 560 37,000  Level FlightAware
06:05AM -20.3820 -49.1530 134° Southeast 485 558 37,000  Level FlightAware
06:05AM -20.4510 -49.0780 134° Southeast 485 558 37,000  Level FlightAware
06:06AM -20.5140 -49.0080 134° Southeast 485 558 37,000  Level FlightAware
06:07AM -20.5920 -48.9210 134° Southeast 487 560 37,000  Level FlightAware
06:08AM -20.6510 -48.8550 134° Southeast 488 562 37,000  Level FlightAware
06:08AM -20.7110 -48.7890 134° Southeast 487 560 37,000  Level FlightAware
06:09AM -20.7840 -48.7060 133° Southeast 486 559 37,000  Level FlightAware
06:10AM -20.8870 -48.5910 134° Southeast 486 559 37,000  Level FlightAware
06:11AM -20.9770 -48.4900 134° Southeast 487 560 37,000  Level FlightAware
06:12AM -21.0490 -48.4090 134° Southeast 488 562 37,000  Level FlightAware
06:13AM -21.1110 -48.3390 134° Southeast 488 562 37,000  Level FlightAware
06:13AM -21.1790 -48.2620 133° Southeast 488 562 37,000  Level FlightAware
06:14AM -21.2390 -48.1940 133° Southeast 490 564 37,000 -960 Level FlightAware
06:17AM -21.5151 -47.9806 144° Southeast  Level Estimated
06:18AM -21.6213 -47.8983 144° Southeast  Level Estimated
06:19AM -21.7274 -47.8158 144° Southeast  Level Estimated
06:20AM -21.8334 -47.7333 144° Southeast  Level Estimated
06:21AM -21.9394 -47.6506 144° Southeast  Level Estimated
06:22AM -22.0454 -47.5678 144° Southeast  Level Estimated
06:23AM -22.1513 -47.4849 144° Southeast  Level Estimated
06:24AM -22.2572 -47.4019 144° Southeast  Level Estimated
06:24AM -22.1640 -47.2700 144° Southeast 365 420 26,700  Level FlightAware
06:25AM -22.2790 -47.2230 159° South 358 412 24,900 -1,620 Descending FlightAware
06:26AM -22.3420 -47.1970 159° South 347 399 24,000 -1,380 Descending FlightAware
06:27AM -22.4050 -47.1710 159° South 346 398 23,000 -1,440 Descending FlightAware
06:27AM -22.4650 -47.1450 158° South 340 391 22,100 -1,380 Descending FlightAware
06:28AM -22.5290 -47.1180 159° South 335 386 21,100 -1,380 Descending FlightAware
06:29AM -22.5860 -47.0940 159° South 331 381 20,200 -1,500 Descending FlightAware
06:31AM -22.7774 -46.9535 146° Southeast  Level Estimated
06:31AM -22.7540 -47.0230 146° Southeast 319 367 17,100  Level FlightAware
06:32AM -22.8740 -46.9730 159° South 316 364 15,100 -1,500 Descending FlightAware
06:35AM -23.1330 -46.7837 134° Southeast  Level FlightAware Approximate
06:36AM -23.2238 -46.6814 132° Southeast  Level FlightAware Approximate
06:37AM -23.3175 -46.5822 129° Southeast  Level FlightAware Approximate
06:37AM -23.2230 -46.8260 129° Southeast 286 329 8,600  Level FlightAware
06:37AM -23.2600 -46.8100 158° South 265 305 8,100 -900 Descending FlightAware
06:38AM -23.2920 -46.7970 160° South 253 291 7,700 -900 Descending FlightAware
06:38AM -23.3220 -46.7840 158° South 242 278 7,300 -540 Descending FlightAware
06:39AM -23.3500 -46.7720 159° South 230 265 7,200 -360 Descending FlightAware
06:39AM -23.3730 -46.7610 156° South 233 268 7,000 -840 Descending FlightAware
06:39AM -23.3980 -46.7390 141° Southeast 242 278 6,500 -900 Descending FlightAware
06:42AM -23.4321 -46.4695 98° East  Level Estimated
06:42AM -23.4660 -46.5890 98° East 166 191 4,200  Level FlightAware
06:43AM -23.4590 -46.5620 74° East 156 180 3,700 -900 Descending FlightAware
06:43AM -23.4530 -46.5410 73° East 150 173 3,300 -720 Descending FlightAware
06:44AM -23.4490 -46.5240 76° East 150 173 3,100 -720 Descending FlightAware
06:44AM -23.4430 -46.5030 73° East 143 165 2,700 -840 Descending FlightAware
06:45AM -23.4390 -46.4890 73° East 144 166 2,400 -900 Descending FlightAware